sensor_id;sensor_type;location;lat;lon;timestamp;P1;durP1;ratioP1;P2;durP2;ratioP2
5841;SDS011;2947;52.276;9.946;2022-12-29T00:02:10;2.77;;;1.43;;
5841;SDS011;2947;52.276;9.946;2022-12-29T00:04:36;2.80;;;1.23;;
5841;SDS011;2947;52.276;9.946;2022-12-29T00:07:02;2.20;;;1.20;;
5841;SDS011;2947;52.276;9.946;2022-12-29T00:09:31;2.37;;;1.40;;
5841;SDS011;2947;52.276;9.946;2022-12-29T00:11:58;2.20;;;1.50;;
5841;SDS011;2947;52.276;9.946;2022-12-29T00:14:24;3.37;;;1.53;;
5841;SDS011;2947;52.276;9.946;2022-12-29T00:17:10;3.53;;;2.00;;
5841;SDS011;2947;52.276;9.946;2022-12-29T00:19:36;2.47;;;1.40;;
5841;SDS011;2947;52.276;9.946;2022-12-29T00:22:20;2.40;;;1.20;;
5841;SDS011;2947;52.276;9.946;2022-12-29T00:25:05;2.30;;;1.30;;
5841;SDS011;2947;52.276;9.946;2022-12-29T00:27:51;2.23;;;1.20;;
5841;SDS011;2947;52.276;9.946;2022-12-29T00:30:36;2.60;;;1.30;;
5841;SDS011;2947;52.276;9.946;2022-12-29T00:33:21;3.87;;;1.37;;
5841;SDS011;2947;52.276;9.946;2022-12-29T00:36:11;2.87;;;1.30;;
5841;SDS011;2947;52.276;9.946;2022-12-29T00:38:52;3.13;;;1.30;;
5841;SDS011;2947;52.276;9.946;2022-12-29T00:41:41;3.20;;;1.30;;
5841;SDS011;2947;52.276;9.946;2022-12-29T00:44:25;2.50;;;1.20;;
5841;SDS011;2947;52.276;9.946;2022-12-29T00:46:51;1.97;;;1.10;;
5841;SDS011;2947;52.276;9.946;2022-12-29T00:49:17;4.70;;;1.50;;
5841;SDS011;2947;52.276;9.946;2022-12-29T00:54:35;2.37;;;1.43;;
5841;SDS011;2947;52.276;9.946;2022-12-29T00:57:04;3.90;;;1.13;;
5841;SDS011;2947;52.276;9.946;2022-12-29T00:59:34;2.40;;;1.23;;
5841;SDS011;2947;52.276;9.946;2022-12-29T01:02:01;3.80;;;1.20;;
5841;SDS011;2947;52.276;9.946;2022-12-29T01:04:27;1.80;;;1.07;;
5841;SDS011;2947;52.276;9.946;2022-12-29T01:06:53;3.97;;;1.60;;
5841;SDS011;2947;52.276;9.946;2022-12-29T01:09:19;2.40;;;1.30;;
5841;SDS011;2947;52.276;9.946;2022-12-29T01:12:04;3.70;;;1.50;;
5841;SDS011;2947;52.276;9.946;2022-12-29T01:14:31;2.27;;;0.97;;
5841;SDS011;2947;52.276;9.946;2022-12-29T01:16:57;2.37;;;1.20;;
5841;SDS011;2947;52.276;9.946;2022-12-29T01:19:23;2.10;;;1.30;;
5841;SDS011;2947;52.276;9.946;2022-12-29T01:21:50;3.00;;;1.50;;
5841;SDS011;2947;52.276;9.946;2022-12-29T01:24:16;3.20;;;1.30;;
5841;SDS011;2947;52.276;9.946;2022-12-29T01:26:44;1.83;;;1.00;;
5841;SDS011;2947;52.276;9.946;2022-12-29T01:29:10;8.13;;;1.30;;
5841;SDS011;2947;52.276;9.946;2022-12-29T01:31:36;2.77;;;1.47;;
5841;SDS011;2947;52.276;9.946;2022-12-29T01:34:03;3.70;;;1.30;;
5841;SDS011;2947;52.276;9.946;2022-12-29T01:36:29;2.97;;;1.13;;
5841;SDS011;2947;52.276;9.946;2022-12-29T01:38:55;2.67;;;1.20;;
5841;SDS011;2947;52.276;9.946;2022-12-29T01:41:21;2.00;;;1.00;;
5841;SDS011;2947;52.276;9.946;2022-12-29T01:43:51;3.60;;;1.10;;
5841;SDS011;2947;52.276;9.946;2022-12-29T01:46:21;2.80;;;1.33;;
5841;SDS011;2947;52.276;9.946;2022-12-29T01:51:36;4.20;;;1.37;;
5841;SDS011;2947;52.276;9.946;2022-12-29T01:54:10;3.50;;;1.20;;
5841;SDS011;2947;52.276;9.946;2022-12-29T01:56:44;3.23;;;1.40;;
5841;SDS011;2947;52.276;9.946;2022-12-29T01:59:12;2.40;;;1.30;;
5841;SDS011;2947;52.276;9.946;2022-12-29T02:01:44;3.43;;;1.30;;
5841;SDS011;2947;52.276;9.946;2022-12-29T02:04:10;2.27;;;1.20;;
5841;SDS011;2947;52.276;9.946;2022-12-29T02:06:39;2.60;;;1.20;;
5841;SDS011;2947;52.276;9.946;2022-12-29T02:09:14;2.60;;;1.30;;
5841;SDS011;2947;52.276;9.946;2022-12-29T02:11:40;2.20;;;1.10;;
5841;SDS011;2947;52.276;9.946;2022-12-29T02:14:09;2.67;;;1.13;;
5841;SDS011;2947;52.276;9.946;2022-12-29T02:16:40;2.30;;;1.23;;
5841;SDS011;2947;52.276;9.946;2022-12-29T02:20:06;1.63;;;0.87;;
5841;SDS011;2947;52.276;9.946;2022-12-29T02:29:05;3.47;;;1.13;;
5841;SDS011;2947;52.276;9.946;2022-12-29T02:32:26;2.27;;;1.13;;
5841;SDS011;2947;52.276;9.946;2022-12-29T02:35:49;2.50;;;1.00;;
5841;SDS011;2947;52.276;9.946;2022-12-29T02:39:04;2.20;;;1.17;;
5841;SDS011;2947;52.276;9.946;2022-12-29T02:45:12;2.80;;;1.00;;
5841;SDS011;2947;52.276;9.946;2022-12-29T02:51:00;1.53;;;0.73;;
5841;SDS011;2947;52.276;9.946;2022-12-29T02:53:30;2.30;;;1.20;;
5841;SDS011;2947;52.276;9.946;2022-12-29T02:56:17;2.43;;;1.00;;
5841;SDS011;2947;52.276;9.946;2022-12-29T02:58:43;2.43;;;1.03;;
5841;SDS011;2947;52.276;9.946;2022-12-29T03:04:14;2.27;;;1.00;;
5841;SDS011;2947;52.276;9.946;2022-12-29T03:07:31;3.33;;;0.90;;
5841;SDS011;2947;52.276;9.946;2022-12-29T03:10:45;2.20;;;1.00;;
5841;SDS011;2947;52.276;9.946;2022-12-29T03:16:47;3.10;;;1.00;;
5841;SDS011;2947;52.276;9.946;2022-12-29T03:19:26;1.60;;;0.70;;
5841;SDS011;2947;52.276;9.946;2022-12-29T03:21:59;1.80;;;0.70;;
5841;SDS011;2947;52.276;9.946;2022-12-29T03:24:52;2.10;;;1.27;;
5841;SDS011;2947;52.276;9.946;2022-12-29T03:27:30;2.10;;;1.00;;
5841;SDS011;2947;52.276;9.946;2022-12-29T03:30:03;2.07;;;1.03;;
5841;SDS011;2947;52.276;9.946;2022-12-29T03:32:50;2.50;;;1.33;;
5841;SDS011;2947;52.276;9.946;2022-12-29T03:35:21;6.47;;;1.20;;
5841;SDS011;2947;52.276;9.946;2022-12-29T03:37:50;2.10;;;1.10;;
5841;SDS011;2947;52.276;9.946;2022-12-29T03:40:22;2.43;;;1.27;;
5841;SDS011;2947;52.276;9.946;2022-12-29T03:42:50;2.27;;;1.17;;
5841;SDS011;2947;52.276;9.946;2022-12-29T03:45:17;2.40;;;1.30;;
5841;SDS011;2947;52.276;9.946;2022-12-29T03:47:44;3.13;;;1.77;;
5841;SDS011;2947;52.276;9.946;2022-12-29T03:50:11;1.63;;;1.03;;
5841;SDS011;2947;52.276;9.946;2022-12-29T03:52:37;2.60;;;1.30;;
5841;SDS011;2947;52.276;9.946;2022-12-29T03:55:04;2.10;;;0.90;;
5841;SDS011;2947;52.276;9.946;2022-12-29T03:57:30;3.27;;;1.50;;
5841;SDS011;2947;52.276;9.946;2022-12-29T03:59:55;3.70;;;1.07;;
5841;SDS011;2947;52.276;9.946;2022-12-29T04:02:21;2.20;;;1.10;;
5841;SDS011;2947;52.276;9.946;2022-12-29T04:04:47;3.37;;;1.20;;
5841;SDS011;2947;52.276;9.946;2022-12-29T04:07:12;2.10;;;1.10;;
5841;SDS011;2947;52.276;9.946;2022-12-29T04:09:38;1.70;;;0.83;;
5841;SDS011;2947;52.276;9.946;2022-12-29T04:12:04;1.80;;;0.80;;
5841;SDS011;2947;52.276;9.946;2022-12-29T04:14:29;2.67;;;0.90;;
5841;SDS011;2947;52.276;9.946;2022-12-29T04:16:55;2.17;;;0.87;;
5841;SDS011;2947;52.276;9.946;2022-12-29T04:19:21;1.53;;;0.70;;
5841;SDS011;2947;52.276;9.946;2022-12-29T04:21:47;1.97;;;0.93;;
5841;SDS011;2947;52.276;9.946;2022-12-29T04:24:13;1.63;;;0.90;;
5841;SDS011;2947;52.276;9.946;2022-12-29T04:26:39;2.17;;;1.00;;
5841;SDS011;2947;52.276;9.946;2022-12-29T04:29:05;2.07;;;0.70;;
5841;SDS011;2947;52.276;9.946;2022-12-29T04:31:31;1.83;;;1.13;;
5841;SDS011;2947;52.276;9.946;2022-12-29T04:33:56;2.40;;;0.80;;
5841;SDS011;2947;52.276;9.946;2022-12-29T04:36:22;1.60;;;0.80;;
5841;SDS011;2947;52.276;9.946;2022-12-29T04:38:49;3.20;;;1.07;;
5841;SDS011;2947;52.276;9.946;2022-12-29T04:41:14;3.87;;;1.20;;
5841;SDS011;2947;52.276;9.946;2022-12-29T04:43:40;2.17;;;0.73;;
5841;SDS011;2947;52.276;9.946;2022-12-29T04:46:06;2.53;;;0.80;;
5841;SDS011;2947;52.276;9.946;2022-12-29T04:48:31;3.30;;;1.10;;
5841;SDS011;2947;52.276;9.946;2022-12-29T04:50:57;1.60;;;0.80;;
5841;SDS011;2947;52.276;9.946;2022-12-29T04:53:23;1.60;;;0.87;;
5841;SDS011;2947;52.276;9.946;2022-12-29T04:55:49;1.97;;;0.83;;
5841;SDS011;2947;52.276;9.946;2022-12-29T04:58:16;3.50;;;0.80;;
5841;SDS011;2947;52.276;9.946;2022-12-29T05:00:43;3.50;;;0.80;;
5841;SDS011;2947;52.276;9.946;2022-12-29T05:03:09;1.80;;;0.87;;
5841;SDS011;2947;52.276;9.946;2022-12-29T05:05:35;2.10;;;1.00;;
5841;SDS011;2947;52.276;9.946;2022-12-29T05:08:01;4.40;;;0.77;;
5841;SDS011;2947;52.276;9.946;2022-12-29T05:10:26;1.50;;;0.70;;
5841;SDS011;2947;52.276;9.946;2022-12-29T05:12:52;1.90;;;0.60;;
5841;SDS011;2947;52.276;9.946;2022-12-29T05:15:18;1.40;;;0.70;;
5841;SDS011;2947;52.276;9.946;2022-12-29T05:17:44;1.60;;;0.60;;
5841;SDS011;2947;52.276;9.946;2022-12-29T05:20:09;1.70;;;1.10;;
5841;SDS011;2947;52.276;9.946;2022-12-29T05:22:35;1.80;;;0.97;;
5841;SDS011;2947;52.276;9.946;2022-12-29T05:25:01;2.90;;;0.90;;
5841;SDS011;2947;52.276;9.946;2022-12-29T05:27:27;1.50;;;0.50;;
5841;SDS011;2947;52.276;9.946;2022-12-29T05:29:53;1.53;;;0.60;;
5841;SDS011;2947;52.276;9.946;2022-12-29T05:32:19;3.13;;;0.77;;
5841;SDS011;2947;52.276;9.946;2022-12-29T05:34:45;1.50;;;0.70;;
5841;SDS011;2947;52.276;9.946;2022-12-29T05:37:10;1.30;;;0.60;;
5841;SDS011;2947;52.276;9.946;2022-12-29T05:39:36;1.57;;;0.60;;
5841;SDS011;2947;52.276;9.946;2022-12-29T05:42:02;2.27;;;0.70;;
5841;SDS011;2947;52.276;9.946;2022-12-29T05:44:27;1.40;;;0.60;;
5841;SDS011;2947;52.276;9.946;2022-12-29T05:46:53;3.10;;;0.57;;
5841;SDS011;2947;52.276;9.946;2022-12-29T05:49:19;1.70;;;0.53;;
5841;SDS011;2947;52.276;9.946;2022-12-29T05:51:44;1.43;;;0.57;;
5841;SDS011;2947;52.276;9.946;2022-12-29T05:54:10;1.83;;;0.63;;
5841;SDS011;2947;52.276;9.946;2022-12-29T05:56:36;1.83;;;0.67;;
5841;SDS011;2947;52.276;9.946;2022-12-29T05:59:01;2.80;;;0.90;;
5841;SDS011;2947;52.276;9.946;2022-12-29T06:01:27;2.47;;;0.70;;
5841;SDS011;2947;52.276;9.946;2022-12-29T06:03:53;1.70;;;0.70;;
5841;SDS011;2947;52.276;9.946;2022-12-29T06:06:19;1.50;;;0.67;;
5841;SDS011;2947;52.276;9.946;2022-12-29T06:08:45;3.50;;;0.60;;
5841;SDS011;2947;52.276;9.946;2022-12-29T06:11:10;2.47;;;0.80;;
5841;SDS011;2947;52.276;9.946;2022-12-29T06:13:36;1.40;;;0.60;;
5841;SDS011;2947;52.276;9.946;2022-12-29T06:16:02;3.10;;;0.67;;
5841;SDS011;2947;52.276;9.946;2022-12-29T06:18:28;3.53;;;0.80;;
5841;SDS011;2947;52.276;9.946;2022-12-29T06:20:53;1.67;;;0.80;;
5841;SDS011;2947;52.276;9.946;2022-12-29T06:23:19;2.67;;;0.60;;
5841;SDS011;2947;52.276;9.946;2022-12-29T06:25:46;2.03;;;0.87;;
5841;SDS011;2947;52.276;9.946;2022-12-29T06:28:13;4.07;;;0.80;;
5841;SDS011;2947;52.276;9.946;2022-12-29T06:30:39;3.40;;;0.80;;
5841;SDS011;2947;52.276;9.946;2022-12-29T06:33:04;2.20;;;0.80;;
5841;SDS011;2947;52.276;9.946;2022-12-29T06:35:30;1.87;;;0.70;;
5841;SDS011;2947;52.276;9.946;2022-12-29T06:37:56;2.30;;;0.60;;
5841;SDS011;2947;52.276;9.946;2022-12-29T06:40:21;1.40;;;0.57;;
5841;SDS011;2947;52.276;9.946;2022-12-29T06:42:48;1.30;;;0.50;;
5841;SDS011;2947;52.276;9.946;2022-12-29T06:45:13;1.60;;;0.70;;
5841;SDS011;2947;52.276;9.946;2022-12-29T06:47:39;1.50;;;0.60;;
5841;SDS011;2947;52.276;9.946;2022-12-29T06:50:05;1.37;;;0.60;;
5841;SDS011;2947;52.276;9.946;2022-12-29T06:52:31;2.97;;;0.53;;
5841;SDS011;2947;52.276;9.946;2022-12-29T06:54:56;1.40;;;0.60;;
5841;SDS011;2947;52.276;9.946;2022-12-29T06:57:22;1.80;;;0.57;;
5841;SDS011;2947;52.276;9.946;2022-12-29T06:59:48;2.90;;;0.70;;
5841;SDS011;2947;52.276;9.946;2022-12-29T07:02:13;1.30;;;0.40;;
5841;SDS011;2947;52.276;9.946;2022-12-29T07:04:41;2.70;;;0.50;;
5841;SDS011;2947;52.276;9.946;2022-12-29T07:07:07;1.40;;;0.50;;
5841;SDS011;2947;52.276;9.946;2022-12-29T07:09:32;1.30;;;0.50;;
5841;SDS011;2947;52.276;9.946;2022-12-29T07:11:58;1.20;;;0.40;;
5841;SDS011;2947;52.276;9.946;2022-12-29T07:14:24;1.20;;;0.40;;
5841;SDS011;2947;52.276;9.946;2022-12-29T07:16:50;1.60;;;0.50;;
5841;SDS011;2947;52.276;9.946;2022-12-29T07:19:15;1.40;;;0.60;;
5841;SDS011;2947;52.276;9.946;2022-12-29T07:21:41;1.70;;;0.67;;
5841;SDS011;2947;52.276;9.946;2022-12-29T07:24:07;1.80;;;0.60;;
5841;SDS011;2947;52.276;9.946;2022-12-29T07:26:32;4.80;;;0.60;;
5841;SDS011;2947;52.276;9.946;2022-12-29T07:28:59;1.30;;;0.40;;
5841;SDS011;2947;52.276;9.946;2022-12-29T07:31:26;1.50;;;0.60;;
5841;SDS011;2947;52.276;9.946;2022-12-29T07:33:51;2.07;;;0.80;;
5841;SDS011;2947;52.276;9.946;2022-12-29T07:36:17;2.07;;;0.70;;
5841;SDS011;2947;52.276;9.946;2022-12-29T07:38:43;1.20;;;0.47;;
5841;SDS011;2947;52.276;9.946;2022-12-29T07:41:09;1.67;;;0.60;;
5841;SDS011;2947;52.276;9.946;2022-12-29T07:43:34;1.60;;;0.60;;
5841;SDS011;2947;52.276;9.946;2022-12-29T07:46:00;2.70;;;0.70;;
5841;SDS011;2947;52.276;9.946;2022-12-29T07:48:26;1.97;;;0.63;;
5841;SDS011;2947;52.276;9.946;2022-12-29T07:50:52;2.03;;;0.60;;
5841;SDS011;2947;52.276;9.946;2022-12-29T07:53:18;2.27;;;0.70;;
5841;SDS011;2947;52.276;9.946;2022-12-29T07:55:44;5.57;;;0.80;;
5841;SDS011;2947;52.276;9.946;2022-12-29T07:58:10;1.40;;;0.60;;
5841;SDS011;2947;52.276;9.946;2022-12-29T08:00:36;2.03;;;0.60;;
5841;SDS011;2947;52.276;9.946;2022-12-29T08:03:03;1.90;;;0.60;;
5841;SDS011;2947;52.276;9.946;2022-12-29T08:05:32;1.80;;;0.70;;
5841;SDS011;2947;52.276;9.946;2022-12-29T08:07:59;1.50;;;0.40;;
5841;SDS011;2947;52.276;9.946;2022-12-29T08:10:25;1.80;;;0.60;;
5841;SDS011;2947;52.276;9.946;2022-12-29T08:12:50;3.40;;;0.70;;
5841;SDS011;2947;52.276;9.946;2022-12-29T08:15:16;1.43;;;0.67;;
5841;SDS011;2947;52.276;9.946;2022-12-29T08:17:42;1.53;;;0.60;;
5841;SDS011;2947;52.276;9.946;2022-12-29T08:20:08;1.60;;;0.63;;
5841;SDS011;2947;52.276;9.946;2022-12-29T08:22:34;3.03;;;0.93;;
5841;SDS011;2947;52.276;9.946;2022-12-29T08:25:00;1.70;;;0.60;;
5841;SDS011;2947;52.276;9.946;2022-12-29T08:27:26;1.93;;;0.50;;
5841;SDS011;2947;52.276;9.946;2022-12-29T08:29:51;1.60;;;0.60;;
5841;SDS011;2947;52.276;9.946;2022-12-29T08:32:17;6.50;;;0.60;;
5841;SDS011;2947;52.276;9.946;2022-12-29T08:34:43;1.30;;;0.60;;
5841;SDS011;2947;52.276;9.946;2022-12-29T08:37:09;2.03;;;0.70;;
5841;SDS011;2947;52.276;9.946;2022-12-29T08:39:34;2.43;;;0.77;;
5841;SDS011;2947;52.276;9.946;2022-12-29T08:42:00;1.40;;;0.53;;
5841;SDS011;2947;52.276;9.946;2022-12-29T08:44:26;1.90;;;0.70;;
5841;SDS011;2947;52.276;9.946;2022-12-29T08:46:52;3.50;;;0.80;;
5841;SDS011;2947;52.276;9.946;2022-12-29T08:49:17;1.87;;;0.70;;
5841;SDS011;2947;52.276;9.946;2022-12-29T08:51:43;4.37;;;0.90;;
5841;SDS011;2947;52.276;9.946;2022-12-29T08:54:08;4.23;;;0.77;;
5841;SDS011;2947;52.276;9.946;2022-12-29T08:56:34;3.70;;;0.80;;
5841;SDS011;2947;52.276;9.946;2022-12-29T08:59:00;4.80;;;0.97;;
5841;SDS011;2947;52.276;9.946;2022-12-29T09:01:26;2.27;;;0.70;;
5841;SDS011;2947;52.276;9.946;2022-12-29T09:03:53;4.20;;;0.87;;
5841;SDS011;2947;52.276;9.946;2022-12-29T09:06:19;2.20;;;0.70;;
5841;SDS011;2947;52.276;9.946;2022-12-29T09:08:45;2.00;;;0.80;;
5841;SDS011;2947;52.276;9.946;2022-12-29T09:13:43;2.33;;;0.70;;
5841;SDS011;2947;52.276;9.946;2022-12-29T09:16:09;1.43;;;0.70;;
5841;SDS011;2947;52.276;9.946;2022-12-29T09:18:34;2.03;;;0.73;;
5841;SDS011;2947;52.276;9.946;2022-12-29T09:21:01;2.37;;;0.90;;
5841;SDS011;2947;52.276;9.946;2022-12-29T09:23:28;3.30;;;0.80;;
5841;SDS011;2947;52.276;9.946;2022-12-29T09:25:54;1.50;;;0.70;;
5841;SDS011;2947;52.276;9.946;2022-12-29T09:28:20;2.20;;;1.00;;
5841;SDS011;2947;52.276;9.946;2022-12-29T09:30:47;4.17;;;0.90;;
5841;SDS011;2947;52.276;9.946;2022-12-29T09:33:14;2.00;;;0.80;;
5841;SDS011;2947;52.276;9.946;2022-12-29T09:35:43;2.57;;;1.10;;
5841;SDS011;2947;52.276;9.946;2022-12-29T09:38:11;3.00;;;1.00;;
5841;SDS011;2947;52.276;9.946;2022-12-29T09:40:37;3.10;;;1.13;;
5841;SDS011;2947;52.276;9.946;2022-12-29T09:48:46;5.73;;;1.20;;
5841;SDS011;2947;52.276;9.946;2022-12-29T09:51:38;2.50;;;0.93;;
5841;SDS011;2947;52.276;9.946;2022-12-29T09:54:50;1.73;;;0.93;;
5841;SDS011;2947;52.276;9.946;2022-12-29T09:57:17;1.90;;;0.77;;
5841;SDS011;2947;52.276;9.946;2022-12-29T10:00:01;2.50;;;0.70;;
5841;SDS011;2947;52.276;9.946;2022-12-29T10:02:53;1.60;;;0.60;;
5841;SDS011;2947;52.276;9.946;2022-12-29T10:05:27;1.90;;;0.70;;
5841;SDS011;2947;52.276;9.946;2022-12-29T10:16:36;1.77;;;0.60;;
5841;SDS011;2947;52.276;9.946;2022-12-29T10:24:40;1.50;;;0.70;;
5841;SDS011;2947;52.276;9.946;2022-12-29T10:27:12;1.70;;;0.60;;
5841;SDS011;2947;52.276;9.946;2022-12-29T10:29:40;6.30;;;1.00;;
5841;SDS011;2947;52.276;9.946;2022-12-29T10:35:03;2.60;;;1.30;;
5841;SDS011;2947;52.276;9.946;2022-12-29T10:40:27;3.63;;;1.00;;
5841;SDS011;2947;52.276;9.946;2022-12-29T10:43:06;6.53;;;1.10;;
5841;SDS011;2947;52.276;9.946;2022-12-29T10:46:02;3.17;;;1.20;;
5841;SDS011;2947;52.276;9.946;2022-12-29T10:48:36;6.70;;;1.60;;
5841;SDS011;2947;52.276;9.946;2022-12-29T10:51:04;3.77;;;0.87;;
5841;SDS011;2947;52.276;9.946;2022-12-29T10:53:35;2.10;;;1.00;;
5841;SDS011;2947;52.276;9.946;2022-12-29T10:56:18;2.20;;;0.90;;
5841;SDS011;2947;52.276;9.946;2022-12-29T10:59:06;3.80;;;1.00;;
5841;SDS011;2947;52.276;9.946;2022-12-29T11:01:44;2.57;;;0.83;;
5841;SDS011;2947;52.276;9.946;2022-12-29T11:07:03;3.27;;;1.10;;
5841;SDS011;2947;52.276;9.946;2022-12-29T11:09:32;3.57;;;0.97;;
5841;SDS011;2947;52.276;9.946;2022-12-29T11:12:17;3.33;;;1.07;;
5841;SDS011;2947;52.276;9.946;2022-12-29T11:15:01;3.50;;;0.70;;
5841;SDS011;2947;52.276;9.946;2022-12-29T11:17:47;2.43;;;0.90;;
5841;SDS011;2947;52.276;9.946;2022-12-29T11:23:03;5.97;;;0.80;;
5841;SDS011;2947;52.276;9.946;2022-12-29T11:25:56;2.63;;;1.00;;
5841;SDS011;2947;52.276;9.946;2022-12-29T11:28:45;3.43;;;0.90;;
5841;SDS011;2947;52.276;9.946;2022-12-29T11:31:48;5.40;;;0.70;;
5841;SDS011;2947;52.276;9.946;2022-12-29T11:34:17;5.60;;;1.20;;
5841;SDS011;2947;52.276;9.946;2022-12-29T11:36:44;3.20;;;1.23;;
5841;SDS011;2947;52.276;9.946;2022-12-29T11:39:23;4.10;;;0.97;;
5841;SDS011;2947;52.276;9.946;2022-12-29T11:41:54;8.20;;;1.30;;
5841;SDS011;2947;52.276;9.946;2022-12-29T11:44:20;5.70;;;1.00;;
5841;SDS011;2947;52.276;9.946;2022-12-29T11:46:47;3.80;;;1.07;;
5841;SDS011;2947;52.276;9.946;2022-12-29T11:49:22;2.97;;;0.87;;
5841;SDS011;2947;52.276;9.946;2022-12-29T11:51:51;4.00;;;0.90;;
5841;SDS011;2947;52.276;9.946;2022-12-29T11:54:25;3.33;;;0.80;;
5841;SDS011;2947;52.276;9.946;2022-12-29T11:56:56;4.60;;;1.07;;
5841;SDS011;2947;52.276;9.946;2022-12-29T11:59:25;12.37;;;2.50;;
5841;SDS011;2947;52.276;9.946;2022-12-29T12:05:08;8.63;;;1.23;;
5841;SDS011;2947;52.276;9.946;2022-12-29T12:10:35;5.00;;;1.10;;
5841;SDS011;2947;52.276;9.946;2022-12-29T12:13:20;3.40;;;0.90;;
5841;SDS011;2947;52.276;9.946;2022-12-29T12:18:57;5.00;;;1.00;;
5841;SDS011;2947;52.276;9.946;2022-12-29T12:22:12;2.90;;;0.70;;
5841;SDS011;2947;52.276;9.946;2022-12-29T12:27:51;4.73;;;0.90;;
5841;SDS011;2947;52.276;9.946;2022-12-29T12:30:27;4.07;;;0.90;;
5841;SDS011;2947;52.276;9.946;2022-12-29T12:33:05;4.37;;;1.10;;
5841;SDS011;2947;52.276;9.946;2022-12-29T12:35:52;5.17;;;0.90;;
5841;SDS011;2947;52.276;9.946;2022-12-29T12:38:37;5.63;;;0.90;;
5841;SDS011;2947;52.276;9.946;2022-12-29T12:44:24;7.47;;;1.00;;
5841;SDS011;2947;52.276;9.946;2022-12-29T12:53:07;6.80;;;1.23;;
5841;SDS011;2947;52.276;9.946;2022-12-29T12:58:43;9.43;;;0.90;;
5841;SDS011;2947;52.276;9.946;2022-12-29T13:04:41;4.23;;;0.90;;
5841;SDS011;2947;52.276;9.946;2022-12-29T13:10:12;3.07;;;0.97;;
5841;SDS011;2947;52.276;9.946;2022-12-29T13:13:10;5.70;;;1.13;;
5841;SDS011;2947;52.276;9.946;2022-12-29T13:27:55;3.93;;;1.10;;
5841;SDS011;2947;52.276;9.946;2022-12-29T13:30:42;3.40;;;0.90;;
5841;SDS011;2947;52.276;9.946;2022-12-29T13:34:05;4.07;;;1.30;;
5841;SDS011;2947;52.276;9.946;2022-12-29T13:36:24;5.17;;;1.27;;
5841;SDS011;2947;52.276;9.946;2022-12-29T13:39:04;2.87;;;1.20;;
5841;SDS011;2947;52.276;9.946;2022-12-29T13:41:42;2.47;;;1.30;;
5841;SDS011;2947;52.276;9.946;2022-12-29T13:44:14;4.90;;;1.00;;
5841;SDS011;2947;52.276;9.946;2022-12-29T13:46:50;3.13;;;1.10;;
5841;SDS011;2947;52.276;9.946;2022-12-29T13:49:19;7.63;;;1.20;;
5841;SDS011;2947;52.276;9.946;2022-12-29T13:52:35;6.17;;;1.53;;
5841;SDS011;2947;52.276;9.946;2022-12-29T13:57:53;4.57;;;1.10;;
5841;SDS011;2947;52.276;9.946;2022-12-29T14:03:30;4.60;;;1.27;;
5841;SDS011;2947;52.276;9.946;2022-12-29T14:09:00;2.43;;;0.93;;
5841;SDS011;2947;52.276;9.946;2022-12-29T14:11:36;6.53;;;1.40;;
5841;SDS011;2947;52.276;9.946;2022-12-29T14:14:18;4.23;;;1.30;;
5841;SDS011;2947;52.276;9.946;2022-12-29T14:16:47;3.73;;;1.07;;
5841;SDS011;2947;52.276;9.946;2022-12-29T14:34:54;6.47;;;1.03;;
5841;SDS011;2947;52.276;9.946;2022-12-29T14:37:29;4.47;;;1.23;;
5841;SDS011;2947;52.276;9.946;2022-12-29T14:42:53;5.73;;;1.23;;
5841;SDS011;2947;52.276;9.946;2022-12-29T14:47:54;4.27;;;1.13;;
5841;SDS011;2947;52.276;9.946;2022-12-29T14:53:06;2.63;;;1.20;;
5841;SDS011;2947;52.276;9.946;2022-12-29T14:56:09;5.60;;;1.23;;
5841;SDS011;2947;52.276;9.946;2022-12-29T14:58:58;6.40;;;1.53;;
5841;SDS011;2947;52.276;9.946;2022-12-29T15:01:51;6.73;;;1.50;;
5841;SDS011;2947;52.276;9.946;2022-12-29T15:04:28;4.47;;;1.20;;
5841;SDS011;2947;52.276;9.946;2022-12-29T15:06:57;4.27;;;1.20;;
5841;SDS011;2947;52.276;9.946;2022-12-29T15:09:35;6.70;;;1.47;;
5841;SDS011;2947;52.276;9.946;2022-12-29T15:12:11;7.00;;;1.77;;
5841;SDS011;2947;52.276;9.946;2022-12-29T15:19:57;5.53;;;1.23;;
5841;SDS011;2947;52.276;9.946;2022-12-29T15:22:45;3.60;;;1.10;;
5841;SDS011;2947;52.276;9.946;2022-12-29T15:25:34;4.60;;;1.87;;
5841;SDS011;2947;52.276;9.946;2022-12-29T15:28:02;3.83;;;1.10;;
5841;SDS011;2947;52.276;9.946;2022-12-29T15:30:32;8.63;;;1.60;;
5841;SDS011;2947;52.276;9.946;2022-12-29T15:32:58;8.30;;;1.63;;
5841;SDS011;2947;52.276;9.946;2022-12-29T15:35:31;11.33;;;1.30;;
5841;SDS011;2947;52.276;9.946;2022-12-29T15:38:00;5.00;;;1.30;;
5841;SDS011;2947;52.276;9.946;2022-12-29T15:40:38;9.40;;;1.53;;
5841;SDS011;2947;52.276;9.946;2022-12-29T15:43:17;4.07;;;1.03;;
5841;SDS011;2947;52.276;9.946;2022-12-29T15:46:01;6.60;;;1.63;;
5841;SDS011;2947;52.276;9.946;2022-12-29T15:48:27;3.80;;;1.10;;
5841;SDS011;2947;52.276;9.946;2022-12-29T15:50:54;4.33;;;1.30;;
5841;SDS011;2947;52.276;9.946;2022-12-29T15:55:59;7.23;;;1.07;;
5841;SDS011;2947;52.276;9.946;2022-12-29T15:58:42;4.27;;;0.93;;
5841;SDS011;2947;52.276;9.946;2022-12-29T16:01:23;7.17;;;1.13;;
5841;SDS011;2947;52.276;9.946;2022-12-29T16:03:54;5.27;;;1.30;;
5841;SDS011;2947;52.276;9.946;2022-12-29T16:09:02;3.50;;;1.20;;
5841;SDS011;2947;52.276;9.946;2022-12-29T16:11:44;4.23;;;1.27;;
5841;SDS011;2947;52.276;9.946;2022-12-29T16:14:17;2.90;;;1.00;;
5841;SDS011;2947;52.276;9.946;2022-12-29T16:16:45;5.07;;;1.50;;
5841;SDS011;2947;52.276;9.946;2022-12-29T16:19:33;3.67;;;1.30;;
5841;SDS011;2947;52.276;9.946;2022-12-29T16:22:03;5.77;;;1.20;;
5841;SDS011;2947;52.276;9.946;2022-12-29T16:24:36;5.43;;;1.37;;
5841;SDS011;2947;52.276;9.946;2022-12-29T16:27:18;7.73;;;1.17;;
5841;SDS011;2947;52.276;9.946;2022-12-29T16:29:51;7.23;;;1.53;;
5841;SDS011;2947;52.276;9.946;2022-12-29T16:32:24;6.47;;;1.73;;
5841;SDS011;2947;52.276;9.946;2022-12-29T16:37:49;3.63;;;1.30;;
5841;SDS011;2947;52.276;9.946;2022-12-29T16:40:31;3.73;;;1.00;;
5841;SDS011;2947;52.276;9.946;2022-12-29T16:42:59;7.23;;;1.27;;
5841;SDS011;2947;52.276;9.946;2022-12-29T16:48:15;7.03;;;1.10;;
5841;SDS011;2947;52.276;9.946;2022-12-29T16:50:46;3.27;;;1.10;;
5841;SDS011;2947;52.276;9.946;2022-12-29T16:53:21;5.73;;;1.60;;
5841;SDS011;2947;52.276;9.946;2022-12-29T16:55:52;6.20;;;1.57;;
5841;SDS011;2947;52.276;9.946;2022-12-29T16:58:24;6.43;;;1.37;;
5841;SDS011;2947;52.276;9.946;2022-12-29T17:01:00;5.33;;;1.03;;
5841;SDS011;2947;52.276;9.946;2022-12-29T17:03:38;5.63;;;1.20;;
5841;SDS011;2947;52.276;9.946;2022-12-29T17:06:10;7.20;;;1.40;;
5841;SDS011;2947;52.276;9.946;2022-12-29T17:08:41;5.80;;;1.50;;
5841;SDS011;2947;52.276;9.946;2022-12-29T17:11:18;6.10;;;1.57;;
5841;SDS011;2947;52.276;9.946;2022-12-29T17:14:09;3.53;;;1.70;;
5841;SDS011;2947;52.276;9.946;2022-12-29T17:16:56;5.67;;;1.53;;
5841;SDS011;2947;52.276;9.946;2022-12-29T17:19:34;7.27;;;1.50;;
5841;SDS011;2947;52.276;9.946;2022-12-29T17:22:02;4.73;;;1.50;;
5841;SDS011;2947;52.276;9.946;2022-12-29T17:24:36;4.73;;;1.40;;
5841;SDS011;2947;52.276;9.946;2022-12-29T17:27:02;5.33;;;1.50;;
5841;SDS011;2947;52.276;9.946;2022-12-29T17:29:38;4.33;;;1.33;;
5841;SDS011;2947;52.276;9.946;2022-12-29T17:32:12;5.10;;;1.47;;
5841;SDS011;2947;52.276;9.946;2022-12-29T17:34:39;5.70;;;1.47;;
5841;SDS011;2947;52.276;9.946;2022-12-29T17:37:21;8.43;;;1.37;;
5841;SDS011;2947;52.276;9.946;2022-12-29T17:39:53;6.67;;;2.80;;
5841;SDS011;2947;52.276;9.946;2022-12-29T17:42:19;5.40;;;1.80;;
5841;SDS011;2947;52.276;9.946;2022-12-29T17:44:44;7.00;;;1.77;;
5841;SDS011;2947;52.276;9.946;2022-12-29T17:47:11;7.43;;;2.13;;
5841;SDS011;2947;52.276;9.946;2022-12-29T17:49:37;13.53;;;2.60;;
5841;SDS011;2947;52.276;9.946;2022-12-29T17:52:03;8.83;;;2.40;;
5841;SDS011;2947;52.276;9.946;2022-12-29T17:54:29;8.37;;;3.10;;
5841;SDS011;2947;52.276;9.946;2022-12-29T17:56:56;7.93;;;2.30;;
5841;SDS011;2947;52.276;9.946;2022-12-29T17:59:21;9.73;;;2.60;;
5841;SDS011;2947;52.276;9.946;2022-12-29T18:01:48;8.60;;;3.00;;
5841;SDS011;2947;52.276;9.946;2022-12-29T18:04:15;5.97;;;2.80;;
5841;SDS011;2947;52.276;9.946;2022-12-29T18:06:44;7.20;;;1.80;;
5841;SDS011;2947;52.276;9.946;2022-12-29T18:09:11;10.20;;;2.50;;
5841;SDS011;2947;52.276;9.946;2022-12-29T18:11:38;6.13;;;2.33;;
5841;SDS011;2947;52.276;9.946;2022-12-29T18:14:13;5.37;;;1.53;;
5841;SDS011;2947;52.276;9.946;2022-12-29T18:16:41;5.67;;;1.67;;